sensor_id;sensor_type;location;lat;lon;timestamp;P1;durP1;ratioP1;P2;durP2;ratioP2
22146;SDS011;13074;48.298;14.424;2023-09-19T00:00:19;31.83;;;15.67;;
22146;SDS011;13074;48.298;14.424;2023-09-19T00:02:46;316.17;;;32.97;;
22146;SDS011;13074;48.298;14.424;2023-09-19T00:05:19;514.53;;;44.23;;
22146;SDS011;13074;48.298;14.424;2023-09-19T00:07:49;342.50;;;27.73;;
22146;SDS011;13074;48.298;14.424;2023-09-19T00:10:19;470.80;;;45.20;;
22146;SDS011;13074;48.298;14.424;2023-09-19T00:12:49;387.57;;;39.57;;
22146;SDS011;13074;48.298;14.424;2023-09-19T00:15:18;225.73;;;25.67;;
22146;SDS011;13074;48.298;14.424;2023-09-19T00:17:45;294.30;;;29.87;;
22146;SDS011;13074;48.298;14.424;2023-09-19T00:20:13;239.47;;;26.50;;
22146;SDS011;13074;48.298;14.424;2023-09-19T00:22:43;878.30;;;62.53;;
22146;SDS011;13074;48.298;14.424;2023-09-19T00:25:10;222.83;;;21.23;;
22146;SDS011;13074;48.298;14.424;2023-09-19T00:27:40;1054.37;;;85.00;;
22146;SDS011;13074;48.298;14.424;2023-09-19T00:30:09;1032.67;;;77.23;;
22146;SDS011;13074;48.298;14.424;2023-09-19T00:32:41;1241.97;;;106.83;;
22146;SDS011;13074;48.298;14.424;2023-09-19T00:35:09;783.30;;;59.80;;
22146;SDS011;13074;48.298;14.424;2023-09-19T00:37:37;586.30;;;49.93;;
22146;SDS011;13074;48.298;14.424;2023-09-19T00:40:06;726.10;;;47.63;;
22146;SDS011;13074;48.298;14.424;2023-09-19T00:42:37;734.33;;;54.80;;
22146;SDS011;13074;48.298;14.424;2023-09-19T00:45:06;420.93;;;33.93;;
22146;SDS011;13074;48.298;14.424;2023-09-19T00:47:38;151.70;;;18.17;;
22146;SDS011;13074;48.298;14.424;2023-09-19T00:50:07;312.63;;;25.83;;
22146;SDS011;13074;48.298;14.424;2023-09-19T00:52:36;702.33;;;50.73;;
22146;SDS011;13074;48.298;14.424;2023-09-19T00:55:05;616.27;;;48.50;;
22146;SDS011;13074;48.298;14.424;2023-09-19T00:57:32;674.27;;;51.90;;
22146;SDS011;13074;48.298;14.424;2023-09-19T01:00:00;279.83;;;23.07;;
22146;SDS011;13074;48.298;14.424;2023-09-19T01:02:31;277.70;;;25.67;;
22146;SDS011;13074;48.298;14.424;2023-09-19T01:04:59;471.53;;;37.00;;
22146;SDS011;13074;48.298;14.424;2023-09-19T01:07:29;511.37;;;41.90;;
22146;SDS011;13074;48.298;14.424;2023-09-19T01:09:58;551.97;;;44.57;;
22146;SDS011;13074;48.298;14.424;2023-09-19T01:12:28;647.07;;;57.20;;
22146;SDS011;13074;48.298;14.424;2023-09-19T01:15:03;168.63;;;21.97;;
22146;SDS011;13074;48.298;14.424;2023-09-19T01:17:41;259.63;;;22.90;;
22146;SDS011;13074;48.298;14.424;2023-09-19T01:20:19;101.47;;;19.07;;
22146;SDS011;13074;48.298;14.424;2023-09-19T01:22:57;144.07;;;19.83;;
22146;SDS011;13074;48.298;14.424;2023-09-19T01:28:30;358.80;;;33.90;;
22146;SDS011;13074;48.298;14.424;2023-09-19T01:31:03;531.90;;;42.40;;
22146;SDS011;13074;48.298;14.424;2023-09-19T01:36:20;29.97;;;13.40;;
22146;SDS011;13074;48.298;14.424;2023-09-19T01:38:48;28.60;;;13.53;;
22146;SDS011;13074;48.298;14.424;2023-09-19T01:41:16;60.83;;;17.13;;
22146;SDS011;13074;48.298;14.424;2023-09-19T01:44:05;34.37;;;15.73;;
22146;SDS011;13074;48.298;14.424;2023-09-19T01:46:38;20.40;;;13.00;;
22146;SDS011;13074;48.298;14.424;2023-09-19T01:49:10;18.77;;;12.83;;
22146;SDS011;13074;48.298;14.424;2023-09-19T01:51:46;13.30;;;9.80;;
22146;SDS011;13074;48.298;14.424;2023-09-19T01:54:26;14.30;;;10.23;;
22146;SDS011;13074;48.298;14.424;2023-09-19T01:56:57;17.27;;;9.87;;
22146;SDS011;13074;48.298;14.424;2023-09-19T01:59:32;16.27;;;9.07;;
22146;SDS011;13074;48.298;14.424;2023-09-19T02:02:07;11.30;;;8.40;;
22146;SDS011;13074;48.298;14.424;2023-09-19T02:04:35;10.43;;;7.37;;
22146;SDS011;13074;48.298;14.424;2023-09-19T02:07:03;8.73;;;7.03;;
22146;SDS011;13074;48.298;14.424;2023-09-19T02:09:33;8.93;;;5.97;;
22146;SDS011;13074;48.298;14.424;2023-09-19T02:12:04;11.47;;;6.10;;
22146;SDS011;13074;48.298;14.424;2023-09-19T02:14:32;6.80;;;6.10;;
22146;SDS011;13074;48.298;14.424;2023-09-19T02:17:01;10.33;;;7.10;;
22146;SDS011;13074;48.298;14.424;2023-09-19T02:19:32;9.37;;;6.53;;
22146;SDS011;13074;48.298;14.424;2023-09-19T02:21:59;11.47;;;6.83;;
22146;SDS011;13074;48.298;14.424;2023-09-19T02:24:28;9.53;;;6.50;;
22146;SDS011;13074;48.298;14.424;2023-09-19T02:26:56;8.23;;;6.57;;
22146;SDS011;13074;48.298;14.424;2023-09-19T02:29:24;10.10;;;6.97;;
22146;SDS011;13074;48.298;14.424;2023-09-19T02:31:52;11.17;;;6.43;;
22146;SDS011;13074;48.298;14.424;2023-09-19T02:34:21;12.23;;;8.70;;
22146;SDS011;13074;48.298;14.424;2023-09-19T02:36:49;16.47;;;10.17;;
22146;SDS011;13074;48.298;14.424;2023-09-19T02:39:18;14.47;;;9.07;;
22146;SDS011;13074;48.298;14.424;2023-09-19T02:41:46;15.43;;;9.67;;
22146;SDS011;13074;48.298;14.424;2023-09-19T02:44:13;18.50;;;9.60;;
22146;SDS011;13074;48.298;14.424;2023-09-19T02:46:40;15.10;;;8.67;;
22146;SDS011;13074;48.298;14.424;2023-09-19T02:49:08;17.77;;;8.37;;
22146;SDS011;13074;48.298;14.424;2023-09-19T02:51:35;13.73;;;7.10;;
22146;SDS011;13074;48.298;14.424;2023-09-19T02:54:04;8.97;;;5.70;;
22146;SDS011;13074;48.298;14.424;2023-09-19T02:56:32;11.60;;;6.30;;
22146;SDS011;13074;48.298;14.424;2023-09-19T02:59:00;8.87;;;5.60;;
22146;SDS011;13074;48.298;14.424;2023-09-19T03:01:28;11.97;;;5.53;;
22146;SDS011;13074;48.298;14.424;2023-09-19T03:03:55;8.73;;;5.53;;
22146;SDS011;13074;48.298;14.424;2023-09-19T03:06:22;12.80;;;5.27;;
22146;SDS011;13074;48.298;14.424;2023-09-19T03:08:50;10.50;;;5.20;;
22146;SDS011;13074;48.298;14.424;2023-09-19T03:11:18;10.53;;;4.50;;
22146;SDS011;13074;48.298;14.424;2023-09-19T03:13:50;10.03;;;4.83;;
22146;SDS011;13074;48.298;14.424;2023-09-19T03:16:18;10.23;;;4.70;;
22146;SDS011;13074;48.298;14.424;2023-09-19T03:18:47;9.17;;;4.23;;
22146;SDS011;13074;48.298;14.424;2023-09-19T03:21:14;6.53;;;3.97;;
22146;SDS011;13074;48.298;14.424;2023-09-19T03:23:42;4.33;;;3.20;;
22146;SDS011;13074;48.298;14.424;2023-09-19T03:26:11;2.87;;;2.57;;
22146;SDS011;13074;48.298;14.424;2023-09-19T03:28:41;4.43;;;2.70;;
22146;SDS011;13074;48.298;14.424;2023-09-19T03:31:08;5.73;;;2.80;;
22146;SDS011;13074;48.298;14.424;2023-09-19T03:33:36;12.13;;;3.53;;
22146;SDS011;13074;48.298;14.424;2023-09-19T03:36:04;6.23;;;2.70;;
22146;SDS011;13074;48.298;14.424;2023-09-19T03:38:32;6.63;;;3.20;;
22146;SDS011;13074;48.298;14.424;2023-09-19T03:41:00;6.07;;;3.40;;
22146;SDS011;13074;48.298;14.424;2023-09-19T03:43:27;8.00;;;3.47;;
22146;SDS011;13074;48.298;14.424;2023-09-19T03:45:56;9.37;;;4.27;;
22146;SDS011;13074;48.298;14.424;2023-09-19T03:48:26;8.07;;;5.33;;
22146;SDS011;13074;48.298;14.424;2023-09-19T03:50:53;12.20;;;5.13;;
22146;SDS011;13074;48.298;14.424;2023-09-19T03:53:21;8.33;;;5.47;;
22146;SDS011;13074;48.298;14.424;2023-09-19T03:55:49;14.10;;;6.40;;
22146;SDS011;13074;48.298;14.424;2023-09-19T03:58:16;13.23;;;6.93;;
22146;SDS011;13074;48.298;14.424;2023-09-19T04:00:44;12.83;;;7.40;;
22146;SDS011;13074;48.298;14.424;2023-09-19T04:03:12;10.73;;;7.00;;
22146;SDS011;13074;48.298;14.424;2023-09-19T04:05:44;12.07;;;7.63;;
22146;SDS011;13074;48.298;14.424;2023-09-19T04:08:12;13.77;;;7.67;;
22146;SDS011;13074;48.298;14.424;2023-09-19T04:10:41;11.33;;;7.70;;
22146;SDS011;13074;48.298;14.424;2023-09-19T04:13:09;13.73;;;8.80;;
22146;SDS011;13074;48.298;14.424;2023-09-19T04:15:37;13.87;;;8.63;;
22146;SDS011;13074;48.298;14.424;2023-09-19T04:18:05;35.27;;;12.93;;
22146;SDS011;13074;48.298;14.424;2023-09-19T04:20:34;17.77;;;9.83;;
22146;SDS011;13074;48.298;14.424;2023-09-19T04:23:01;16.70;;;10.90;;
22146;SDS011;13074;48.298;14.424;2023-09-19T04:25:29;22.00;;;9.57;;
22146;SDS011;13074;48.298;14.424;2023-09-19T04:27:57;241.63;;;22.33;;
22146;SDS011;13074;48.298;14.424;2023-09-19T04:30:24;21.27;;;11.13;;
22146;SDS011;13074;48.298;14.424;2023-09-19T04:32:52;77.13;;;15.70;;
22146;SDS011;13074;48.298;14.424;2023-09-19T04:35:19;66.57;;;13.27;;
22146;SDS011;13074;48.298;14.424;2023-09-19T04:37:48;433.17;;;35.80;;
22146;SDS011;13074;48.298;14.424;2023-09-19T04:40:16;410.70;;;34.80;;
22146;SDS011;13074;48.298;14.424;2023-09-19T04:42:44;371.40;;;29.90;;
22146;SDS011;13074;48.298;14.424;2023-09-19T04:45:11;325.93;;;28.57;;
22146;SDS011;13074;48.298;14.424;2023-09-19T04:47:39;328.00;;;29.60;;
22146;SDS011;13074;48.298;14.424;2023-09-19T04:50:09;211.37;;;20.43;;
22146;SDS011;13074;48.298;14.424;2023-09-19T04:52:39;197.60;;;22.67;;
22146;SDS011;13074;48.298;14.424;2023-09-19T04:55:11;522.00;;;39.47;;
22146;SDS011;13074;48.298;14.424;2023-09-19T04:57:41;351.70;;;33.70;;
22146;SDS011;13074;48.298;14.424;2023-09-19T05:00:10;277.80;;;26.57;;
22146;SDS011;13074;48.298;14.424;2023-09-19T05:02:39;100.73;;;15.17;;
22146;SDS011;13074;48.298;14.424;2023-09-19T05:05:07;28.67;;;11.80;;
22146;SDS011;13074;48.298;14.424;2023-09-19T05:07:37;34.87;;;12.63;;
22146;SDS011;13074;48.298;14.424;2023-09-19T05:10:06;177.47;;;20.90;;
22146;SDS011;13074;48.298;14.424;2023-09-19T05:12:35;30.70;;;11.33;;
22146;SDS011;13074;48.298;14.424;2023-09-19T05:15:03;27.87;;;10.87;;
22146;SDS011;13074;48.298;14.424;2023-09-19T05:17:32;49.33;;;12.50;;
22146;SDS011;13074;48.298;14.424;2023-09-19T05:19:59;27.47;;;12.73;;
22146;SDS011;13074;48.298;14.424;2023-09-19T05:22:40;240.63;;;21.40;;
22146;SDS011;13074;48.298;14.424;2023-09-19T05:25:08;192.73;;;22.27;;
22146;SDS011;13074;48.298;14.424;2023-09-19T05:27:37;56.70;;;15.73;;
22146;SDS011;13074;48.298;14.424;2023-09-19T05:30:05;21.13;;;11.43;;
22146;SDS011;13074;48.298;14.424;2023-09-19T05:32:33;348.93;;;35.10;;
22146;SDS011;13074;48.298;14.424;2023-09-19T05:35:00;189.10;;;23.10;;
22146;SDS011;13074;48.298;14.424;2023-09-19T05:37:28;53.73;;;15.43;;
22146;SDS011;13074;48.298;14.424;2023-09-19T05:39:55;333.13;;;28.90;;
22146;SDS011;13074;48.298;14.424;2023-09-19T05:42:22;137.10;;;17.40;;
22146;SDS011;13074;48.298;14.424;2023-09-19T05:44:51;446.13;;;40.17;;
22146;SDS011;13074;48.298;14.424;2023-09-19T05:47:18;196.50;;;23.40;;
22146;SDS011;13074;48.298;14.424;2023-09-19T05:49:46;244.03;;;24.43;;
22146;SDS011;13074;48.298;14.424;2023-09-19T05:52:14;55.80;;;14.57;;
22146;SDS011;13074;48.298;14.424;2023-09-19T05:54:42;103.43;;;16.50;;
22146;SDS011;13074;48.298;14.424;2023-09-19T05:57:10;136.20;;;17.77;;
22146;SDS011;13074;48.298;14.424;2023-09-19T05:59:37;58.67;;;14.20;;
22146;SDS011;13074;48.298;14.424;2023-09-19T06:02:06;15.17;;;10.20;;
22146;SDS011;13074;48.298;14.424;2023-09-19T06:04:35;18.43;;;12.17;;
22146;SDS011;13074;48.298;14.424;2023-09-19T06:07:05;35.73;;;12.33;;
22146;SDS011;13074;48.298;14.424;2023-09-19T06:09:33;22.37;;;12.90;;
22146;SDS011;13074;48.298;14.424;2023-09-19T06:12:00;168.13;;;18.67;;
22146;SDS011;13074;48.298;14.424;2023-09-19T06:14:29;16.77;;;9.63;;
22146;SDS011;13074;48.298;14.424;2023-09-19T06:16:57;158.77;;;14.97;;
22146;SDS011;13074;48.298;14.424;2023-09-19T06:19:27;16.00;;;8.83;;
22146;SDS011;13074;48.298;14.424;2023-09-19T06:21:54;22.03;;;8.77;;
22146;SDS011;13074;48.298;14.424;2023-09-19T06:24:21;9.43;;;7.67;;
22146;SDS011;13074;48.298;14.424;2023-09-19T06:26:48;10.77;;;8.37;;
22146;SDS011;13074;48.298;14.424;2023-09-19T06:29:17;8.90;;;6.03;;
22146;SDS011;13074;48.298;14.424;2023-09-19T06:31:45;13.83;;;7.70;;
22146;SDS011;13074;48.298;14.424;2023-09-19T06:34:13;12.40;;;7.93;;
22146;SDS011;13074;48.298;14.424;2023-09-19T06:36:44;10.73;;;6.70;;
22146;SDS011;13074;48.298;14.424;2023-09-19T06:39:11;14.87;;;7.83;;
22146;SDS011;13074;48.298;14.424;2023-09-19T06:41:39;180.70;;;16.60;;
22146;SDS011;13074;48.298;14.424;2023-09-19T06:44:06;22.43;;;7.23;;
22146;SDS011;13074;48.298;14.424;2023-09-19T06:46:34;7.73;;;6.03;;
22146;SDS011;13074;48.298;14.424;2023-09-19T06:49:04;71.17;;;9.53;;
22146;SDS011;13074;48.298;14.424;2023-09-19T06:51:31;49.23;;;10.03;;
22146;SDS011;13074;48.298;14.424;2023-09-19T06:54:01;9.93;;;6.10;;
22146;SDS011;13074;48.298;14.424;2023-09-19T06:56:30;13.60;;;6.83;;
22146;SDS011;13074;48.298;14.424;2023-09-19T06:58:58;7.00;;;5.80;;
22146;SDS011;13074;48.298;14.424;2023-09-19T07:01:25;7.10;;;5.50;;
22146;SDS011;13074;48.298;14.424;2023-09-19T07:03:53;8.27;;;6.20;;
22146;SDS011;13074;48.298;14.424;2023-09-19T07:06:20;9.67;;;4.67;;
22146;SDS011;13074;48.298;14.424;2023-09-19T07:08:47;6.97;;;4.70;;
22146;SDS011;13074;48.298;14.424;2023-09-19T07:11:17;6.37;;;4.83;;
22146;SDS011;13074;48.298;14.424;2023-09-19T07:13:44;8.20;;;4.20;;
22146;SDS011;13074;48.298;14.424;2023-09-19T07:16:12;5.33;;;4.00;;
22146;SDS011;13074;48.298;14.424;2023-09-19T07:18:52;5.90;;;3.80;;
22146;SDS011;13074;48.298;14.424;2023-09-19T07:21:20;5.17;;;3.83;;
22146;SDS011;13074;48.298;14.424;2023-09-19T07:24:06;9.27;;;4.40;;
22146;SDS011;13074;48.298;14.424;2023-09-19T07:26:34;4.37;;;3.40;;
22146;SDS011;13074;48.298;14.424;2023-09-19T07:29:02;5.73;;;3.20;;
22146;SDS011;13074;48.298;14.424;2023-09-19T07:31:29;4.50;;;3.00;;
22146;SDS011;13074;48.298;14.424;2023-09-19T07:33:57;6.40;;;3.20;;
22146;SDS011;13074;48.298;14.424;2023-09-19T07:36:24;7.77;;;3.43;;
22146;SDS011;13074;48.298;14.424;2023-09-19T07:38:51;6.60;;;3.40;;
22146;SDS011;13074;48.298;14.424;2023-09-19T07:41:20;7.80;;;4.03;;
22146;SDS011;13074;48.298;14.424;2023-09-19T07:43:48;7.73;;;2.90;;
22146;SDS011;13074;48.298;14.424;2023-09-19T07:46:16;3.90;;;3.23;;
22146;SDS011;13074;48.298;14.424;2023-09-19T07:48:43;8.00;;;3.97;;
22146;SDS011;13074;48.298;14.424;2023-09-19T07:51:14;5.30;;;3.63;;
22146;SDS011;13074;48.298;14.424;2023-09-19T07:53:41;3.83;;;2.60;;
22146;SDS011;13074;48.298;14.424;2023-09-19T07:56:09;3.97;;;2.47;;
22146;SDS011;13074;48.298;14.424;2023-09-19T07:58:38;7.23;;;2.73;;
22146;SDS011;13074;48.298;14.424;2023-09-19T08:01:10;3.33;;;2.47;;
22146;SDS011;13074;48.298;14.424;2023-09-19T08:03:39;3.60;;;2.33;;
22146;SDS011;13074;48.298;14.424;2023-09-19T08:06:08;5.07;;;2.20;;
22146;SDS011;13074;48.298;14.424;2023-09-19T08:08:36;2.63;;;1.97;;
22146;SDS011;13074;48.298;14.424;2023-09-19T08:11:03;6.27;;;1.87;;
22146;SDS011;13074;48.298;14.424;2023-09-19T08:13:36;3.23;;;2.30;;
22146;SDS011;13074;48.298;14.424;2023-09-19T08:16:08;3.27;;;2.47;;
22146;SDS011;13074;48.298;14.424;2023-09-19T08:18:37;6.93;;;2.07;;
22146;SDS011;13074;48.298;14.424;2023-09-19T08:21:05;4.67;;;2.23;;
22146;SDS011;13074;48.298;14.424;2023-09-19T08:23:36;2.47;;;2.00;;
22146;SDS011;13074;48.298;14.424;2023-09-19T08:26:03;6.83;;;3.07;;
22146;SDS011;13074;48.298;14.424;2023-09-19T08:28:31;3.57;;;2.13;;
22146;SDS011;13074;48.298;14.424;2023-09-19T08:31:01;4.77;;;2.03;;
22146;SDS011;13074;48.298;14.424;2023-09-19T08:33:31;8.57;;;2.60;;
22146;SDS011;13074;48.298;14.424;2023-09-19T08:36:00;4.80;;;2.20;;
22146;SDS011;13074;48.298;14.424;2023-09-19T08:38:30;2.77;;;1.93;;
22146;SDS011;13074;48.298;14.424;2023-09-19T08:40:58;4.30;;;2.37;;
22146;SDS011;13074;48.298;14.424;2023-09-19T08:43:26;4.93;;;2.13;;
22146;SDS011;13074;48.298;14.424;2023-09-19T08:45:54;5.37;;;2.17;;
22146;SDS011;13074;48.298;14.424;2023-09-19T08:48:31;7.53;;;2.40;;
22146;SDS011;13074;48.298;14.424;2023-09-19T08:51:02;6.97;;;2.60;;
22146;SDS011;13074;48.298;14.424;2023-09-19T08:53:34;5.60;;;2.13;;
22146;SDS011;13074;48.298;14.424;2023-09-19T08:56:11;4.43;;;2.10;;
22146;SDS011;13074;48.298;14.424;2023-09-19T08:58:43;3.17;;;2.63;;
22146;SDS011;13074;48.298;14.424;2023-09-19T09:01:13;2.83;;;2.10;;
22146;SDS011;13074;48.298;14.424;2023-09-19T09:03:43;3.70;;;2.43;;
22146;SDS011;13074;48.298;14.424;2023-09-19T09:06:15;4.10;;;2.73;;
22146;SDS011;13074;48.298;14.424;2023-09-19T09:08:43;4.87;;;2.30;;
22146;SDS011;13074;48.298;14.424;2023-09-19T09:11:11;3.20;;;1.77;;
22146;SDS011;13074;48.298;14.424;2023-09-19T09:13:39;2.87;;;2.43;;
22146;SDS011;13074;48.298;14.424;2023-09-19T09:16:06;3.40;;;2.33;;
22146;SDS011;13074;48.298;14.424;2023-09-19T09:18:35;6.60;;;2.43;;
22146;SDS011;13074;48.298;14.424;2023-09-19T09:21:02;6.67;;;2.30;;
22146;SDS011;13074;48.298;14.424;2023-09-19T09:23:31;5.27;;;2.60;;
22146;SDS011;13074;48.298;14.424;2023-09-19T09:25:59;4.67;;;2.47;;
22146;SDS011;13074;48.298;14.424;2023-09-19T09:28:30;7.27;;;2.30;;
22146;SDS011;13074;48.298;14.424;2023-09-19T09:30:58;7.90;;;2.47;;
22146;SDS011;13074;48.298;14.424;2023-09-19T09:33:28;6.13;;;2.53;;
22146;SDS011;13074;48.298;14.424;2023-09-19T09:35:56;5.70;;;2.57;;
22146;SDS011;13074;48.298;14.424;2023-09-19T09:38:26;4.30;;;2.37;;
22146;SDS011;13074;48.298;14.424;2023-09-19T09:40:59;7.33;;;2.50;;
22146;SDS011;13074;48.298;14.424;2023-09-19T09:43:32;4.63;;;2.73;;
22146;SDS011;13074;48.298;14.424;2023-09-19T09:46:07;4.37;;;2.17;;
22146;SDS011;13074;48.298;14.424;2023-09-19T09:48:57;2.57;;;1.90;;
22146;SDS011;13074;48.298;14.424;2023-09-19T09:51:41;3.00;;;2.00;;
22146;SDS011;13074;48.298;14.424;2023-09-19T09:54:12;3.90;;;2.43;;
22146;SDS011;13074;48.298;14.424;2023-09-19T09:56:54;5.30;;;2.50;;
22146;SDS011;13074;48.298;14.424;2023-09-19T10:02:19;4.40;;;2.23;;
22146;SDS011;13074;48.298;14.424;2023-09-19T10:04:51;4.07;;;2.27;;
22146;SDS011;13074;48.298;14.424;2023-09-19T10:07:27;4.73;;;2.40;;
22146;SDS011;13074;48.298;14.424;2023-09-19T10:10:01;4.83;;;2.00;;
22146;SDS011;13074;48.298;14.424;2023-09-19T10:12:44;2.90;;;1.97;;
22146;SDS011;13074;48.298;14.424;2023-09-19T10:15:13;4.70;;;2.20;;
22146;SDS011;13074;48.298;14.424;2023-09-19T10:17:42;2.47;;;1.73;;
22146;SDS011;13074;48.298;14.424;2023-09-19T10:20:14;6.90;;;2.20;;
22146;SDS011;13074;48.298;14.424;2023-09-19T10:23:04;2.93;;;1.93;;
22146;SDS011;13074;48.298;14.424;2023-09-19T10:25:38;1.90;;;1.63;;
22146;SDS011;13074;48.298;14.424;2023-09-19T10:28:07;4.83;;;2.03;;
22146;SDS011;13074;48.298;14.424;2023-09-19T10:30:37;5.17;;;1.90;;
22146;SDS011;13074;48.298;14.424;2023-09-19T10:33:09;4.27;;;1.97;;
22146;SDS011;13074;48.298;14.424;2023-09-19T10:35:38;2.37;;;1.70;;
22146;SDS011;13074;48.298;14.424;2023-09-19T10:38:09;4.03;;;1.70;;
22146;SDS011;13074;48.298;14.424;2023-09-19T10:40:38;2.90;;;1.80;;
22146;SDS011;13074;48.298;14.424;2023-09-19T10:43:13;2.27;;;1.70;;
22146;SDS011;13074;48.298;14.424;2023-09-19T10:45:44;2.80;;;1.77;;
22146;SDS011;13074;48.298;14.424;2023-09-19T10:48:14;3.17;;;1.92;;
22146;SDS011;13074;48.298;14.424;2023-09-19T10:50:45;3.08;;;1.80;;
22146;SDS011;13074;48.298;14.424;2023-09-19T10:53:15;3.20;;;1.80;;
22146;SDS011;13074;48.298;14.424;2023-09-19T10:55:48;4.65;;;1.98;;
22146;SDS011;13074;48.298;14.424;2023-09-19T10:58:27;16.15;;;6.70;;
22146;SDS011;13074;48.298;14.424;2023-09-19T11:00:56;28.50;;;9.20;;
22146;SDS011;13074;48.298;14.424;2023-09-19T11:03:30;3.58;;;2.03;;
22146;SDS011;13074;48.298;14.424;2023-09-19T11:06:09;2.05;;;1.50;;
22146;SDS011;13074;48.298;14.424;2023-09-19T11:08:56;3.28;;;1.88;;
22146;SDS011;13074;48.298;14.424;2023-09-19T11:11:41;3.00;;;1.40;;
22146;SDS011;13074;48.298;14.424;2023-09-19T11:14:17;3.15;;;1.52;;
22146;SDS011;13074;48.298;14.424;2023-09-19T11:23:22;3.43;;;1.50;;
22146;SDS011;13074;48.298;14.424;2023-09-19T11:25:52;2.20;;;1.83;;
22146;SDS011;13074;48.298;14.424;2023-09-19T11:28:30;2.53;;;1.60;;
22146;SDS011;13074;48.298;14.424;2023-09-19T11:30:58;1.80;;;1.50;;
22146;SDS011;13074;48.298;14.424;2023-09-19T11:33:25;4.20;;;1.60;;
22146;SDS011;13074;48.298;14.424;2023-09-19T11:35:58;2.80;;;1.63;;
22146;SDS011;13074;48.298;14.424;2023-09-19T11:41:36;5.43;;;1.77;;
22146;SDS011;13074;48.298;14.424;2023-09-19T11:47:04;3.80;;;2.10;;
22146;SDS011;13074;48.298;14.424;2023-09-19T11:49:34;2.07;;;1.67;;
22146;SDS011;13074;48.298;14.424;2023-09-19T11:52:05;2.27;;;1.53;;
22146;SDS011;13074;48.298;14.424;2023-09-19T11:54:34;2.13;;;1.53;;
22146;SDS011;13074;48.298;14.424;2023-09-19T11:57:06;2.93;;;2.03;;
22146;SDS011;13074;48.298;14.424;2023-09-19T11:59:38;2.77;;;1.80;;
22146;SDS011;13074;48.298;14.424;2023-09-19T12:02:07;3.50;;;1.70;;
22146;SDS011;13074;48.298;14.424;2023-09-19T12:04:36;2.33;;;1.80;;
22146;SDS011;13074;48.298;14.424;2023-09-19T12:07:04;2.23;;;1.57;;
22146;SDS011;13074;48.298;14.424;2023-09-19T12:09:37;3.73;;;1.80;;
22146;SDS011;13074;48.298;14.424;2023-09-19T12:12:09;4.03;;;1.70;;
22146;SDS011;13074;48.298;14.424;2023-09-19T12:14:37;3.17;;;1.80;;
22146;SDS011;13074;48.298;14.424;2023-09-19T12:17:09;2.40;;;1.60;;
22146;SDS011;13074;48.298;14.424;2023-09-19T12:19:38;2.73;;;1.80;;
22146;SDS011;13074;48.298;14.424;2023-09-19T12:22:05;22.77;;;5.53;;
22146;SDS011;13074;48.298;14.424;2023-09-19T12:24:34;11.93;;;3.83;;
22146;SDS011;13074;48.298;14.424;2023-09-19T12:27:04;2.80;;;1.70;;
22146;SDS011;13074;48.298;14.424;2023-09-19T12:29:32;3.07;;;1.50;;
22146;SDS011;13074;48.298;14.424;2023-09-19T12:32:10;2.27;;;1.60;;
22146;SDS011;13074;48.298;14.424;2023-09-19T12:34:42;3.13;;;1.57;;
22146;SDS011;13074;48.298;14.424;2023-09-19T12:37:17;3.28;;;1.95;;
22146;SDS011;13074;48.298;14.424;2023-09-19T12:39:48;2.13;;;1.60;;
22146;SDS011;13074;48.298;14.424;2023-09-19T12:42:19;2.73;;;1.70;;
22146;SDS011;13074;48.298;14.424;2023-09-19T12:44:48;4.60;;;1.87;;
22146;SDS011;13074;48.298;14.424;2023-09-19T12:47:22;3.00;;;1.80;;
22146;SDS011;13074;48.298;14.424;2023-09-19T12:50:05;2.07;;;1.70;;
22146;SDS011;13074;48.298;14.424;2023-09-19T12:52:43;3.07;;;1.40;;
22146;SDS011;13074;48.298;14.424;2023-09-19T12:55:25;2.10;;;1.40;;
22146;SDS011;13074;48.298;14.424;2023-09-19T12:58:07;4.00;;;1.80;;
22146;SDS011;13074;48.298;14.424;2023-09-19T13:00:36;3.30;;;1.73;;
22146;SDS011;13074;48.298;14.424;2023-09-19T13:03:15;4.53;;;1.83;;
22146;SDS011;13074;48.298;14.424;2023-09-19T13:05:51;2.70;;;1.67;;
22146;SDS011;13074;48.298;14.424;2023-09-19T13:08:21;2.47;;;1.50;;
22146;SDS011;13074;48.298;14.424;2023-09-19T13:11:10;2.47;;;1.60;;
22146;SDS011;13074;48.298;14.424;2023-09-19T13:13:40;4.20;;;2.03;;
22146;SDS011;13074;48.298;14.424;2023-09-19T13:16:09;5.43;;;2.13;;
22146;SDS011;13074;48.298;14.424;2023-09-19T13:18:48;2.87;;;2.10;;
22146;SDS011;13074;48.298;14.424;2023-09-19T13:21:27;4.97;;;2.10;;
22146;SDS011;13074;48.298;14.424;2023-09-19T13:23:55;5.00;;;2.30;;
22146;SDS011;13074;48.298;14.424;2023-09-19T13:26:24;5.40;;;2.10;;
22146;SDS011;13074;48.298;14.424;2023-09-19T13:28:53;8.93;;;2.37;;
22146;SDS011;13074;48.298;14.424;2023-09-19T13:31:20;4.13;;;2.33;;
22146;SDS011;13074;48.298;14.424;2023-09-19T13:33:50;5.83;;;1.80;;
22146;SDS011;13074;48.298;14.424;2023-09-19T13:36:17;3.33;;;1.60;;
22146;SDS011;13074;48.298;14.424;2023-09-19T13:38:44;4.57;;;1.80;;
22146;SDS011;13074;48.298;14.424;2023-09-19T13:41:14;9.27;;;1.93;;
22146;SDS011;13074;48.298;14.424;2023-09-19T13:43:41;2.63;;;1.83;;
22146;SDS011;13074;48.298;14.424;2023-09-19T13:46:14;3.80;;;1.90;;
22146;SDS011;13074;48.298;14.424;2023-09-19T13:48:43;1.60;;;1.50;;
22146;SDS011;13074;48.298;14.424;2023-09-19T13:51:11;8.13;;;2.50;;
22146;SDS011;13074;48.298;14.424;2023-09-19T13:53:40;5.60;;;1.70;;
22146;SDS011;13074;48.298;14.424;2023-09-19T13:56:07;3.40;;;1.50;;
22146;SDS011;13074;48.298;14.424;2023-09-19T13:58:34;3.50;;;1.50;;
22146;SDS011;13074;48.298;14.424;2023-09-19T14:01:01;5.73;;;1.40;;
22146;SDS011;13074;48.298;14.424;2023-09-19T14:03:29;4.77;;;1.50;;
22146;SDS011;13074;48.298;14.424;2023-09-19T14:05:56;2.77;;;1.20;;
22146;SDS011;13074;48.298;14.424;2023-09-19T14:08:25;5.37;;;1.50;;
22146;SDS011;13074;48.298;14.424;2023-09-19T14:10:52;1.20;;;1.10;;
22146;SDS011;13074;48.298;14.424;2023-09-19T14:13:19;6.90;;;1.40;;
22146;SDS011;13074;48.298;14.424;2023-09-19T14:15:47;4.20;;;1.57;;
22146;SDS011;13074;48.298;14.424;2023-09-19T14:18:14;2.43;;;1.30;;
22146;SDS011;13074;48.298;14.424;2023-09-19T14:20:41;3.50;;;1.50;;
22146;SDS011;13074;48.298;14.424;2023-09-19T14:23:09;3.07;;;1.30;;
22146;SDS011;13074;48.298;14.424;2023-09-19T14:25:38;2.77;;;1.30;;
22146;SDS011;13074;48.298;14.424;2023-09-19T14:28:06;2.13;;;1.33;;
22146;SDS011;13074;48.298;14.424;2023-09-19T14:30:34;1.77;;;1.30;;
22146;SDS011;13074;48.298;14.424;2023-09-19T14:33:02;2.60;;;1.50;;
22146;SDS011;13074;48.298;14.424;2023-09-19T14:35:30;4.77;;;1.93;;
22146;SDS011;13074;48.298;14.424;2023-09-19T14:37:57;4.53;;;1.33;;
22146;SDS011;13074;48.298;14.424;2023-09-19T14:40:24;1.77;;;1.30;;
22146;SDS011;13074;48.298;14.424;2023-09-19T14:42:53;3.07;;;1.47;;
22146;SDS011;13074;48.298;14.424;2023-09-19T14:45:20;1.63;;;1.30;;
22146;SDS011;13074;48.298;14.424;2023-09-19T14:47:50;6.73;;;1.50;;
22146;SDS011;13074;48.298;14.424;2023-09-19T14:50:20;2.90;;;2.07;;
22146;SDS011;13074;48.298;14.424;2023-09-19T14:52:47;3.57;;;1.50;;
22146;SDS011;13074;48.298;14.424;2023-09-19T14:55:16;2.53;;;1.40;;
22146;SDS011;13074;48.298;14.424;2023-09-19T14:57:48;3.37;;;1.67;;
22146;SDS011;13074;48.298;14.424;2023-09-19T15:00:18;1.47;;;1.37;;